sensor_id;sensor_type;location;lat;lon;timestamp;pressure;altitude;pressure_sealevel;temperature;humidity
1472;BME280;963;42.644;23.336;2022-08-01T00:02:06;94080.50;;;21.65;50.98
1472;BME280;963;42.644;23.336;2022-08-01T00:04:31;94090.56;;;21.61;51.04
1472;BME280;963;42.644;23.336;2022-08-01T00:06:57;94097.97;;;21.57;50.32
1472;BME280;963;42.644;23.336;2022-08-01T00:09:22;94094.19;;;21.54;50.76
1472;BME280;963;42.644;23.336;2022-08-01T00:11:47;94092.38;;;21.51;49.95
1472;BME280;963;42.644;23.336;2022-08-01T00:14:13;94099.66;;;21.50;49.22
1472;BME280;963;42.644;23.336;2022-08-01T00:16:38;94088.41;;;21.56;49.39
1472;BME280;963;42.644;23.336;2022-08-01T00:19:04;94087.25;;;21.57;49.17
1472;BME280;963;42.644;23.336;2022-08-01T00:21:29;94099.97;;;21.52;48.62
1472;BME280;963;42.644;23.336;2022-08-01T00:23:55;94087.53;;;21.46;48.20
1472;BME280;963;42.644;23.336;2022-08-01T00:26:20;94083.81;;;21.43;48.50
1472;BME280;963;42.644;23.336;2022-08-01T00:28:46;94093.13;;;21.39;48.41
1472;BME280;963;42.644;23.336;2022-08-01T00:31:11;94108.09;;;21.49;48.13
1472;BME280;963;42.644;23.336;2022-08-01T00:33:36;94091.72;;;21.34;47.79
1472;BME280;963;42.644;23.336;2022-08-01T00:36:02;94090.31;;;21.42;48.18
1472;BME280;963;42.644;23.336;2022-08-01T00:38:27;94092.59;;;21.57;48.35
1472;BME280;963;42.644;23.336;2022-08-01T00:40:53;94090.25;;;21.59;48.38
1472;BME280;963;42.644;23.336;2022-08-01T00:43:18;94076.72;;;21.49;48.38
1472;BME280;963;42.644;23.336;2022-08-01T00:45:44;94090.44;;;21.51;48.56
1472;BME280;963;42.644;23.336;2022-08-01T00:48:09;94104.34;;;21.46;48.59
1472;BME280;963;42.644;23.336;2022-08-01T00:50:35;94075.13;;;21.39;49.17
1472;BME280;963;42.644;23.336;2022-08-01T00:53:01;94098.78;;;21.53;49.00
1472;BME280;963;42.644;23.336;2022-08-01T00:55:27;94093.44;;;21.41;50.94
1472;BME280;963;42.644;23.336;2022-08-01T00:57:53;94097.72;;;21.38;53.80
1472;BME280;963;42.644;23.336;2022-08-01T01:00:19;94093.09;;;21.26;54.70
1472;BME280;963;42.644;23.336;2022-08-01T01:02:45;94093.13;;;21.10;55.80
1472;BME280;963;42.644;23.336;2022-08-01T01:05:10;94094.53;;;21.14;55.93
1472;BME280;963;42.644;23.336;2022-08-01T01:10:31;94098.34;;;21.01;55.15
1472;BME280;963;42.644;23.336;2022-08-01T01:13:09;94068.63;;;21.11;54.60
1472;BME280;963;42.644;23.336;2022-08-01T01:15:49;94093.34;;;21.03;53.36
1472;BME280;963;42.644;23.336;2022-08-01T01:18:29;94073.75;;;21.06;52.60
1472;BME280;963;42.644;23.336;2022-08-01T01:31:25;94040.81;;;20.96;52.20
1472;BME280;963;42.644;23.336;2022-08-01T01:33:53;94062.28;;;20.92;52.82
1472;BME280;963;42.644;23.336;2022-08-01T01:36:20;94046.25;;;20.92;52.10
1472;BME280;963;42.644;23.336;2022-08-01T01:38:47;94057.69;;;20.93;51.29
1472;BME280;963;42.644;23.336;2022-08-01T01:41:15;94048.06;;;20.96;50.86
1472;BME280;963;42.644;23.336;2022-08-01T01:43:42;94051.41;;;21.00;49.77
1472;BME280;963;42.644;23.336;2022-08-01T01:46:11;94050.22;;;21.01;49.31
1472;BME280;963;42.644;23.336;2022-08-01T01:48:38;94035.66;;;21.02;48.44
1472;BME280;963;42.644;23.336;2022-08-01T01:51:04;94054.06;;;21.00;47.70
1472;BME280;963;42.644;23.336;2022-08-01T01:53:32;94048.19;;;21.05;47.43
1472;BME280;963;42.644;23.336;2022-08-01T01:55:58;94039.31;;;21.08;47.15
1472;BME280;963;42.644;23.336;2022-08-01T01:58:27;94030.66;;;21.04;46.96
1472;BME280;963;42.644;23.336;2022-08-01T02:00:56;94029.03;;;21.06;45.71
1472;BME280;963;42.644;23.336;2022-08-01T02:03:23;94042.84;;;21.05;46.13
1472;BME280;963;42.644;23.336;2022-08-01T02:05:51;94030.44;;;20.98;46.01
1472;BME280;963;42.644;23.336;2022-08-01T02:08:17;94023.38;;;21.04;43.71
1472;BME280;963;42.644;23.336;2022-08-01T02:10:44;94030.72;;;20.87;42.63
1472;BME280;963;42.644;23.336;2022-08-01T02:13:34;94022.06;;;20.83;43.01
1472;BME280;963;42.644;23.336;2022-08-01T02:16:02;94018.66;;;20.96;42.68
1472;BME280;963;42.644;23.336;2022-08-01T02:18:28;94018.97;;;20.98;42.74
1472;BME280;963;42.644;23.336;2022-08-01T02:20:56;94012.66;;;20.91;42.23
1472;BME280;963;42.644;23.336;2022-08-01T02:23:24;94029.88;;;20.90;41.67
1472;BME280;963;42.644;23.336;2022-08-01T02:25:55;94012.44;;;20.86;42.08
1472;BME280;963;42.644;23.336;2022-08-01T02:28:36;94015.78;;;20.61;42.37
1472;BME280;963;42.644;23.336;2022-08-01T02:31:08;94013.91;;;20.74;41.83
1472;BME280;963;42.644;23.336;2022-08-01T02:33:38;94014.53;;;20.78;41.62
1472;BME280;963;42.644;23.336;2022-08-01T02:36:05;94011.38;;;20.83;41.53
1472;BME280;963;42.644;23.336;2022-08-01T02:38:34;94036.63;;;20.95;40.81
1472;BME280;963;42.644;23.336;2022-08-01T02:41:05;94018.97;;;20.98;41.43
1472;BME280;963;42.644;23.336;2022-08-01T02:43:34;94009.78;;;20.99;41.33
1472;BME280;963;42.644;23.336;2022-08-01T02:46:04;94023.59;;;21.10;41.63
1472;BME280;963;42.644;23.336;2022-08-01T02:48:33;94023.59;;;21.10;41.67
1472;BME280;963;42.644;23.336;2022-08-01T02:51:01;94035.13;;;21.07;41.70
1472;BME280;963;42.644;23.336;2022-08-01T02:53:31;94014.38;;;20.98;41.91
1472;BME280;963;42.644;23.336;2022-08-01T02:55:58;94032.34;;;20.98;42.35
1472;BME280;963;42.644;23.336;2022-08-01T02:58:25;94012.34;;;21.02;42.10
1472;BME280;963;42.644;23.336;2022-08-01T03:00:51;94011.38;;;20.83;43.05
1472;BME280;963;42.644;23.336;2022-08-01T03:03:18;94024.84;;;20.92;43.23
1472;BME280;963;42.644;23.336;2022-08-01T03:05:44;94015.75;;;20.90;43.49
1472;BME280;963;42.644;23.336;2022-08-01T03:08:11;94030.41;;;20.85;44.67
1472;BME280;963;42.644;23.336;2022-08-01T03:10:41;94015.63;;;20.81;45.66
1472;BME280;963;42.644;23.336;2022-08-01T03:13:08;94020.69;;;20.50;47.39
1472;BME280;963;42.644;23.336;2022-08-01T03:15:37;94020.47;;;20.44;48.42
1472;BME280;963;42.644;23.336;2022-08-01T03:18:05;94028.47;;;20.44;48.90
1472;BME280;963;42.644;23.336;2022-08-01T03:20:35;94033.47;;;20.42;48.81
1472;BME280;963;42.644;23.336;2022-08-01T03:23:05;94024.53;;;20.33;49.08
1472;BME280;963;42.644;23.336;2022-08-01T03:25:33;94032.72;;;20.25;49.09
1472;BME280;963;42.644;23.336;2022-08-01T03:28:02;94015.38;;;20.17;49.21
1472;BME280;963;42.644;23.336;2022-08-01T03:30:29;94034.09;;;20.17;49.94
1472;BME280;963;42.644;23.336;2022-08-01T03:32:55;94043.03;;;19.94;50.70
1472;BME280;963;42.644;23.336;2022-08-01T03:35:23;94035.25;;;20.16;50.84
1472;BME280;963;42.644;23.336;2022-08-01T03:37:52;94044.16;;;20.26;51.33
1472;BME280;963;42.644;23.336;2022-08-01T03:40:39;94033.91;;;20.24;51.87
1472;BME280;963;42.644;23.336;2022-08-01T03:43:09;94044.50;;;20.28;52.09
1472;BME280;963;42.644;23.336;2022-08-01T03:45:39;94040.03;;;20.38;51.74
1472;BME280;963;42.644;23.336;2022-08-01T03:48:17;94027.44;;;20.38;51.59
1472;BME280;963;42.644;23.336;2022-08-01T03:50:45;94038.06;;;20.42;51.82
1472;BME280;963;42.644;23.336;2022-08-01T03:53:13;94030.84;;;20.39;51.64
1472;BME280;963;42.644;23.336;2022-08-01T03:55:41;94032.38;;;20.40;51.03
1472;BME280;963;42.644;23.336;2022-08-01T03:58:08;94028.53;;;20.41;51.04
1472;BME280;963;42.644;23.336;2022-08-01T04:00:36;94037.03;;;20.36;51.65
1472;BME280;963;42.644;23.336;2022-08-01T04:03:07;94029.22;;;20.28;52.07
1472;BME280;963;42.644;23.336;2022-08-01T04:05:33;94035.06;;;20.40;51.84
1472;BME280;963;42.644;23.336;2022-08-01T04:07:58;94043.06;;;20.40;52.80
1472;BME280;963;42.644;23.336;2022-08-01T04:10:27;94025.22;;;20.20;52.66
1472;BME280;963;42.644;23.336;2022-08-01T04:12:52;94056.75;;;20.42;54.14
1472;BME280;963;42.644;23.336;2022-08-01T04:15:18;94038.75;;;20.46;54.65
1472;BME280;963;42.644;23.336;2022-08-01T04:17:45;94035.06;;;20.40;55.05
1472;BME280;963;42.644;23.336;2022-08-01T04:20:11;94036.72;;;20.50;54.76
1472;BME280;963;42.644;23.336;2022-08-01T04:22:37;94040.03;;;20.54;55.19
1472;BME280;963;42.644;23.336;2022-08-01T04:25:09;94043.03;;;20.56;55.46
1472;BME280;963;42.644;23.336;2022-08-01T04:27:38;94037.38;;;20.54;55.12
1472;BME280;963;42.644;23.336;2022-08-01T04:30:05;94028.94;;;20.55;55.00
1472;BME280;963;42.644;23.336;2022-08-01T04:32:35;94029.59;;;20.59;54.21
1472;BME280;963;42.644;23.336;2022-08-01T04:35:06;94039.00;;;20.64;54.25
1472;BME280;963;42.644;23.336;2022-08-01T04:37:33;94028.84;;;20.59;53.55
1472;BME280;963;42.644;23.336;2022-08-01T04:40:03;94039.31;;;20.66;52.48
1472;BME280;963;42.644;23.336;2022-08-01T04:42:30;94039.53;;;20.59;52.53
1472;BME280;963;42.644;23.336;2022-08-01T04:44:57;94026.84;;;20.76;52.99
1472;BME280;963;42.644;23.336;2022-08-01T04:47:22;94048.81;;;20.96;53.62
1472;BME280;963;42.644;23.336;2022-08-01T04:49:49;94027.84;;;20.95;53.36
1472;BME280;963;42.644;23.336;2022-08-01T04:52:15;94028.19;;;21.09;52.09
1472;BME280;963;42.644;23.336;2022-08-01T04:54:43;94044.13;;;21.13;52.31
1472;BME280;963;42.644;23.336;2022-08-01T04:57:08;94040.78;;;21.25;52.24
1472;BME280;963;42.644;23.336;2022-08-01T04:59:37;94039.28;;;21.24;51.91
1472;BME280;963;42.644;23.336;2022-08-01T05:02:16;94036.47;;;21.40;51.95
1472;BME280;963;42.644;23.336;2022-08-01T05:04:42;94029.31;;;21.37;50.39
1472;BME280;963;42.644;23.336;2022-08-01T05:07:09;94032.41;;;21.48;49.99
1472;BME280;963;42.644;23.336;2022-08-01T05:09:35;94028.03;;;21.67;50.02
1472;BME280;963;42.644;23.336;2022-08-01T05:12:03;94023.41;;;21.68;51.62
1472;BME280;963;42.644;23.336;2022-08-01T05:14:29;94021.50;;;21.68;51.97
1472;BME280;963;42.644;23.336;2022-08-01T05:17:01;94024.69;;;21.76;50.70
1472;BME280;963;42.644;23.336;2022-08-01T05:19:29;94025.00;;;21.78;49.56
1472;BME280;963;42.644;23.336;2022-08-01T05:21:55;94019.25;;;21.67;48.43
1472;BME280;963;42.644;23.336;2022-08-01T05:24:21;94022.84;;;21.98;47.68
1472;BME280;963;42.644;23.336;2022-08-01T05:26:47;94027.13;;;21.96;48.41
1472;BME280;963;42.644;23.336;2022-08-01T05:29:14;94015.34;;;22.06;48.49
1472;BME280;963;42.644;23.336;2022-08-01T05:31:39;94019.66;;;22.25;48.16
1472;BME280;963;42.644;23.336;2022-08-01T05:34:05;94008.50;;;22.05;47.02
1472;BME280;963;42.644;23.336;2022-08-01T05:36:30;94013.78;;;22.30;46.88
1472;BME280;963;42.644;23.336;2022-08-01T05:38:56;94022.63;;;22.40;46.38
1472;BME280;963;42.644;23.336;2022-08-01T05:41:21;94019.81;;;22.43;46.34
1472;BME280;963;42.644;23.336;2022-08-01T05:43:47;94014.84;;;22.33;46.72
1472;BME280;963;42.644;23.336;2022-08-01T05:46:12;94009.53;;;22.42;47.24
1472;BME280;963;42.644;23.336;2022-08-01T05:48:38;94008.16;;;22.59;47.16
1472;BME280;963;42.644;23.336;2022-08-01T05:51:03;94020.06;;;22.58;44.67
1472;BME280;963;42.644;23.336;2022-08-01T05:53:28;94010.38;;;22.73;43.32
1472;BME280;963;42.644;23.336;2022-08-01T05:55:54;94027.81;;;22.56;43.33
1472;BME280;963;42.644;23.336;2022-08-01T05:58:20;94027.13;;;22.65;42.93
1472;BME280;963;42.644;23.336;2022-08-01T06:00:45;94042.97;;;22.72;43.39
1472;BME280;963;42.644;23.336;2022-08-01T06:03:11;94031.91;;;22.83;43.23
1472;BME280;963;42.644;23.336;2022-08-01T06:05:36;94029.75;;;22.77;43.08
1472;BME280;963;42.644;23.336;2022-08-01T06:08:03;94025.72;;;22.73;43.25
1472;BME280;963;42.644;23.336;2022-08-01T06:10:28;94024.66;;;22.70;42.56
1472;BME280;963;42.644;23.336;2022-08-01T06:12:53;94026.16;;;22.71;43.23
1472;BME280;963;42.644;23.336;2022-08-01T06:15:19;94032.88;;;22.76;43.22
1472;BME280;963;42.644;23.336;2022-08-01T06:17:44;94030.28;;;22.85;43.08
1472;BME280;963;42.644;23.336;2022-08-01T06:20:10;94044.13;;;22.84;43.04
1472;BME280;963;42.644;23.336;2022-08-01T06:22:36;94039.13;;;22.95;43.00
1472;BME280;963;42.644;23.336;2022-08-01T06:25:01;94051.88;;;22.82;42.95
1472;BME280;963;42.644;23.336;2022-08-01T06:27:27;94035.78;;;22.82;43.41
1472;BME280;963;42.644;23.336;2022-08-01T06:29:52;94032.00;;;23.01;43.69
1472;BME280;963;42.644;23.336;2022-08-01T06:32:22;94043.31;;;22.96;43.27
1472;BME280;963;42.644;23.336;2022-08-01T06:34:48;94015.59;;;22.99;43.29
1472;BME280;963;42.644;23.336;2022-08-01T06:37:13;94032.06;;;23.10;43.37
1472;BME280;963;42.644;23.336;2022-08-01T06:39:39;94026.88;;;23.16;43.46
1472;BME280;963;42.644;23.336;2022-08-01T06:42:05;94022.97;;;23.07;43.78
1472;BME280;963;42.644;23.336;2022-08-01T06:44:30;94022.16;;;22.98;43.48
1472;BME280;963;42.644;23.336;2022-08-01T06:46:56;94018.50;;;23.14;43.19
1472;BME280;963;42.644;23.336;2022-08-01T06:49:24;94014.59;;;23.05;43.58
1472;BME280;963;42.644;23.336;2022-08-01T06:51:49;94020.63;;;23.19;43.20
1472;BME280;963;42.644;23.336;2022-08-01T06:54:15;94009.63;;;23.26;43.67
1472;BME280;963;42.644;23.336;2022-08-01T06:56:41;93994.13;;;23.30;43.51
1472;BME280;963;42.644;23.336;2022-08-01T06:59:07;94005.69;;;23.49;43.07
1472;BME280;963;42.644;23.336;2022-08-01T07:01:32;94022.00;;;23.23;43.22
1472;BME280;963;42.644;23.336;2022-08-01T07:03:58;93984.97;;;23.09;44.11
1472;BME280;963;42.644;23.336;2022-08-01T07:06:24;93996.03;;;23.20;43.68
1472;BME280;963;42.644;23.336;2022-08-01T07:08:50;94000.50;;;23.23;43.33
1472;BME280;963;42.644;23.336;2022-08-01T07:11:16;94009.78;;;23.00;43.83
1472;BME280;963;42.644;23.336;2022-08-01T07:13:41;94015.09;;;23.13;44.24
1472;BME280;963;42.644;23.336;2022-08-01T07:16:06;94002.69;;;23.06;45.13
1472;BME280;963;42.644;23.336;2022-08-01T07:18:32;93995.31;;;22.98;45.18
1472;BME280;963;42.644;23.336;2022-08-01T07:20:57;94011.56;;;23.25;44.31
1472;BME280;963;42.644;23.336;2022-08-01T07:23:23;94005.84;;;23.45;44.54
1472;BME280;963;42.644;23.336;2022-08-01T07:25:49;94024.53;;;23.58;44.54
1472;BME280;963;42.644;23.336;2022-08-01T07:28:16;94004.88;;;23.70;44.59
1472;BME280;963;42.644;23.336;2022-08-01T07:30:41;94014.13;;;23.69;44.00
1472;BME280;963;42.644;23.336;2022-08-01T07:33:09;94008.13;;;23.56;45.19
1472;BME280;963;42.644;23.336;2022-08-01T07:35:35;93999.94;;;23.59;44.38
1472;BME280;963;42.644;23.336;2022-08-01T07:38:04;94004.63;;;23.86;44.33
1472;BME280;963;42.644;23.336;2022-08-01T07:40:29;94001.06;;;23.98;44.16
1472;BME280;963;42.644;23.336;2022-08-01T07:42:54;93998.22;;;24.02;43.19
1472;BME280;963;42.644;23.336;2022-08-01T07:45:20;93993.28;;;24.00;43.08
1472;BME280;963;42.644;23.336;2022-08-01T07:47:46;93992.25;;;23.98;43.26
1472;BME280;963;42.644;23.336;2022-08-01T07:50:12;94001.50;;;23.97;42.62
1472;BME280;963;42.644;23.336;2022-08-01T07:52:38;94001.94;;;23.86;42.58
1472;BME280;963;42.644;23.336;2022-08-01T07:55:04;94012.03;;;23.73;42.70
1472;BME280;963;42.644;23.336;2022-08-01T07:57:30;93987.91;;;23.82;42.46
1472;BME280;963;42.644;23.336;2022-08-01T07:59:55;94004.63;;;23.86;41.92
1472;BME280;963;42.644;23.336;2022-08-01T08:02:21;94000.16;;;23.83;42.17
1472;BME280;963;42.644;23.336;2022-08-01T08:04:46;94014.03;;;24.00;42.17
1472;BME280;963;42.644;23.336;2022-08-01T08:07:11;94012.72;;;24.05;42.88
1472;BME280;963;42.644;23.336;2022-08-01T08:09:37;94010.66;;;24.18;42.38
1472;BME280;963;42.644;23.336;2022-08-01T08:12:02;94022.28;;;24.15;42.24
1472;BME280;963;42.644;23.336;2022-08-01T08:14:28;94003.34;;;24.27;42.17
1472;BME280;963;42.644;23.336;2022-08-01T08:16:54;93987.66;;;24.26;42.02
1472;BME280;963;42.644;23.336;2022-08-01T08:19:19;93993.91;;;24.14;42.80
1472;BME280;963;42.644;23.336;2022-08-01T08:21:45;93998.69;;;24.10;42.46
1472;BME280;963;42.644;23.336;2022-08-01T08:24:10;93992.44;;;24.22;42.42
1472;BME280;963;42.644;23.336;2022-08-01T08:26:46;94009.19;;;24.35;43.13
1472;BME280;963;42.644;23.336;2022-08-01T08:29:12;94032.31;;;24.51;42.26
1472;BME280;963;42.644;23.336;2022-08-01T08:31:37;94001.09;;;24.44;42.14
1472;BME280;963;42.644;23.336;2022-08-01T08:34:03;93991.97;;;24.51;41.73
1472;BME280;963;42.644;23.336;2022-08-01T08:36:28;94012.63;;;24.63;41.76
1472;BME280;963;42.644;23.336;2022-08-01T08:38:54;93998.72;;;24.65;41.71
1472;BME280;963;42.644;23.336;2022-08-01T08:41:20;94014.88;;;24.55;41.68
1472;BME280;963;42.644;23.336;2022-08-01T08:43:46;93997.53;;;24.56;41.26
1472;BME280;963;42.644;23.336;2022-08-01T08:46:13;94007.06;;;24.67;41.92
1472;BME280;963;42.644;23.336;2022-08-01T08:48:40;93984.97;;;24.62;40.88
1472;BME280;963;42.644;23.336;2022-08-01T08:51:07;94010.66;;;24.63;40.92
1472;BME280;963;42.644;23.336;2022-08-01T08:53:35;94004.69;;;24.69;41.30
1472;BME280;963;42.644;23.336;2022-08-01T08:56:02;94008.09;;;24.78;40.84
1472;BME280;963;42.644;23.336;2022-08-01T08:58:28;93999.47;;;24.65;40.39
1472;BME280;963;42.644;23.336;2022-08-01T09:00:54;93994.50;;;24.82;40.18
1472;BME280;963;42.644;23.336;2022-08-01T09:03:20;94002.41;;;24.85;41.29
1472;BME280;963;42.644;23.336;2022-08-01T09:05:45;93995.25;;;24.91;40.67
1472;BME280;963;42.644;23.336;2022-08-01T09:08:11;93994.78;;;24.93;39.82
1472;BME280;963;42.644;23.336;2022-08-01T09:10:37;93988.38;;;24.81;39.49
1472;BME280;963;42.644;23.336;2022-08-01T09:15:45;93982.81;;;24.94;39.27
1472;BME280;963;42.644;23.336;2022-08-01T09:23:48;93979.00;;;25.19;38.79
1472;BME280;963;42.644;23.336;2022-08-01T09:26:16;93977.72;;;25.05;39.62
1472;BME280;963;42.644;23.336;2022-08-01T09:28:44;93977.34;;;25.21;39.83
1472;BME280;963;42.644;23.336;2022-08-01T09:31:13;93984.81;;;25.27;39.42
1472;BME280;963;42.644;23.336;2022-08-01T09:36:17;93987.22;;;25.24;39.08
1472;BME280;963;42.644;23.336;2022-08-01T09:38:43;93977.47;;;25.27;39.04
1472;BME280;963;42.644;23.336;2022-08-01T09:41:09;93971.97;;;25.21;39.54
1472;BME280;963;42.644;23.336;2022-08-01T09:43:36;93982.72;;;25.31;39.93
1472;BME280;963;42.644;23.336;2022-08-01T09:46:10;93971.63;;;25.38;39.89
1472;BME280;963;42.644;23.336;2022-08-01T09:48:39;93981.47;;;25.41;39.67
1472;BME280;963;42.644;23.336;2022-08-01T09:51:32;93972.19;;;25.42;39.33
1472;BME280;963;42.644;23.336;2022-08-01T09:53:58;93971.81;;;25.58;39.99
1472;BME280;963;42.644;23.336;2022-08-01T09:56:24;93960.41;;;25.63;40.56
1472;BME280;963;42.644;23.336;2022-08-01T09:58:52;93978.91;;;25.79;40.90
1472;BME280;963;42.644;23.336;2022-08-01T10:01:21;93970.78;;;25.89;40.02
1472;BME280;963;42.644;23.336;2022-08-01T10:04:03;93976.28;;;25.70;41.04
1472;BME280;963;42.644;23.336;2022-08-01T10:06:29;93966.59;;;25.88;41.00
1472;BME280;963;42.644;23.336;2022-08-01T10:08:54;93966.59;;;25.88;40.09
1472;BME280;963;42.644;23.336;2022-08-01T10:11:20;93960.69;;;25.74;39.49
1472;BME280;963;42.644;23.336;2022-08-01T10:13:47;93957.94;;;25.83;38.80
1472;BME280;963;42.644;23.336;2022-08-01T10:16:14;93964.47;;;25.92;39.02
1472;BME280;963;42.644;23.336;2022-08-01T10:18:40;93966.13;;;26.13;39.44
1472;BME280;963;42.644;23.336;2022-08-01T10:21:06;93967.25;;;25.97;39.88
1472;BME280;963;42.644;23.336;2022-08-01T10:23:36;93957.75;;;26.11;39.73
1472;BME280;963;42.644;23.336;2022-08-01T10:26:05;93951.91;;;26.27;39.25
1472;BME280;963;42.644;23.336;2022-08-01T10:28:31;93950.66;;;26.37;39.54
1472;BME280;963;42.644;23.336;2022-08-01T10:30:59;93951.16;;;26.27;39.70
1472;BME280;963;42.644;23.336;2022-08-01T10:33:25;93947.53;;;26.30;38.26
1472;BME280;963;42.644;23.336;2022-08-01T10:35:51;93956.16;;;26.58;37.34
1472;BME280;963;42.644;23.336;2022-08-01T10:38:17;93952.34;;;26.64;38.04
1472;BME280;963;42.644;23.336;2022-08-01T10:40:43;93937.75;;;26.71;37.66
1472;BME280;963;42.644;23.336;2022-08-01T10:43:10;93946.25;;;26.78;38.11
1472;BME280;963;42.644;23.336;2022-08-01T10:45:36;93964.44;;;26.69;38.52
1472;BME280;963;42.644;23.336;2022-08-01T10:50:51;93956.56;;;26.80;38.65
1472;BME280;963;42.644;23.336;2022-08-01T10:53:19;93958.13;;;26.72;38.04
1472;BME280;963;42.644;23.336;2022-08-01T10:55:58;93951.63;;;26.93;38.28
1472;BME280;963;42.644;23.336;2022-08-01T11:01:13;93929.06;;;27.26;36.68
1472;BME280;963;42.644;23.336;2022-08-01T11:03:40;93951.44;;;27.26;36.71
1472;BME280;963;42.644;23.336;2022-08-01T11:06:06;93921.72;;;27.26;37.42
1472;BME280;963;42.644;23.336;2022-08-01T11:08:36;93925.09;;;27.06;37.25
1472;BME280;963;42.644;23.336;2022-08-01T11:11:03;93952.91;;;27.27;37.29
1472;BME280;963;42.644;23.336;2022-08-01T11:16:31;93922.88;;;27.40;37.26
1472;BME280;963;42.644;23.336;2022-08-01T11:18:57;93917.63;;;27.51;36.86
1472;BME280;963;42.644;23.336;2022-08-01T11:35:10;93903.75;;;27.99;36.42
1472;BME280;963;42.644;23.336;2022-08-01T11:37:35;93907.19;;;27.99;36.96
1472;BME280;963;42.644;23.336;2022-08-01T11:40:23;93913.75;;;27.93;37.06
1472;BME280;963;42.644;23.336;2022-08-01T11:45:56;93914.53;;;28.19;36.36
1472;BME280;963;42.644;23.336;2022-08-01T11:48:23;93902.91;;;28.33;36.43
1472;BME280;963;42.644;23.336;2022-08-01T11:50:54;93909.28;;;28.30;36.20
1472;BME280;963;42.644;23.336;2022-08-01T11:53:20;93909.13;;;28.40;35.74
1472;BME280;963;42.644;23.336;2022-08-01T11:55:47;93929.06;;;28.42;36.22
1472;BME280;963;42.644;23.336;2022-08-01T11:58:15;93893.84;;;28.37;36.26
1472;BME280;963;42.644;23.336;2022-08-01T12:00:41;93926.25;;;28.57;36.12
1472;BME280;963;42.644;23.336;2022-08-01T12:03:08;93913.22;;;28.29;36.22
1472;BME280;963;42.644;23.336;2022-08-01T12:05:36;93901.78;;;28.46;36.40
1472;BME280;963;42.644;23.336;2022-08-01T12:08:03;93889.25;;;28.48;36.11
1472;BME280;963;42.644;23.336;2022-08-01T12:10:32;93929.59;;;28.72;35.82
1472;BME280;963;42.644;23.336;2022-08-01T12:13:04;93910.44;;;29.02;35.86
1472;BME280;963;42.644;23.336;2022-08-01T12:15:37;93913.41;;;29.04;35.41
1472;BME280;963;42.644;23.336;2022-08-01T12:18:05;93910.28;;;29.16;35.50
1472;BME280;963;42.644;23.336;2022-08-01T12:20:36;93915.16;;;29.12;35.24
1472;BME280;963;42.644;23.336;2022-08-01T12:23:05;93927.34;;;29.28;34.73
1472;BME280;963;42.644;23.336;2022-08-01T12:25:31;93922.44;;;29.32;34.86
1472;BME280;963;42.644;23.336;2022-08-01T12:28:02;93905.75;;;29.39;35.06
1472;BME280;963;42.644;23.336;2022-08-01T12:30:28;93906.56;;;29.51;34.78
1472;BME280;963;42.644;23.336;2022-08-01T12:32:56;93908.28;;;29.11;35.38
1472;BME280;963;42.644;23.336;2022-08-01T12:35:24;93894.28;;;29.61;35.04
1472;BME280;963;42.644;23.336;2022-08-01T12:37:55;93906.16;;;29.32;34.36
1472;BME280;963;42.644;23.336;2022-08-01T12:40:22;93910.94;;;29.43;34.96
1472;BME280;963;42.644;23.336;2022-08-01T12:42:53;93921.03;;;29.42;34.33
1472;BME280;963;42.644;23.336;2022-08-01T12:45:25;93926.53;;;29.53;34.35
1472;BME280;963;42.644;23.336;2022-08-01T12:47:52;93904.78;;;29.42;34.81
1472;BME280;963;42.644;23.336;2022-08-01T12:50:20;93911.03;;;29.54;35.02
1472;BME280;963;42.644;23.336;2022-08-01T12:52:47;93908.59;;;29.62;35.01
1472;BME280;963;42.644;23.336;2022-08-01T12:55:17;93901.78;;;29.77;34.37
1472;BME280;963;42.644;23.336;2022-08-01T12:57:46;93897.63;;;29.93;34.20
1472;BME280;963;42.644;23.336;2022-08-01T13:02:42;93906.59;;;30.10;34.23
1472;BME280;963;42.644;23.336;2022-08-01T13:05:08;93907.06;;;30.09;33.34
1472;BME280;963;42.644;23.336;2022-08-01T13:07:40;93902.44;;;30.15;33.75
1472;BME280;963;42.644;23.336;2022-08-01T13:10:06;93901.97;;;30.39;32.89
1472;BME280;963;42.644;23.336;2022-08-01T13:12:32;93884.94;;;30.44;33.25
1472;BME280;963;42.644;23.336;2022-08-01T13:14:57;93892.88;;;30.53;33.25
1472;BME280;963;42.644;23.336;2022-08-01T13:17:32;93903.53;;;30.62;33.38
1472;BME280;963;42.644;23.336;2022-08-01T13:19:58;93892.38;;;30.49;32.96
1472;BME280;963;42.644;23.336;2022-08-01T13:22:34;93892.38;;;30.49;33.75
1472;BME280;963;42.644;23.336;2022-08-01T13:25:13;93902.75;;;30.51;33.50
1472;BME280;963;42.644;23.336;2022-08-01T13:27:39;93878.84;;;30.66;32.98
1472;BME280;963;42.644;23.336;2022-08-01T13:30:18;93891.41;;;30.52;33.65
1472;BME280;963;42.644;23.336;2022-08-01T13:32:59;93904.28;;;30.63;33.63
1472;BME280;963;42.644;23.336;2022-08-01T13:35:25;93886.25;;;30.76;33.50
1472;BME280;963;42.644;23.336;2022-08-01T13:37:52;93881.53;;;30.83;32.90
1472;BME280;963;42.644;23.336;2022-08-01T13:40:26;93884.03;;;30.92;33.48
1472;BME280;963;42.644;23.336;2022-08-01T13:42:52;93873.16;;;30.75;33.10
1472;BME280;963;42.644;23.336;2022-08-01T13:45:19;93880.03;;;30.59;33.00
1472;BME280;963;42.644;23.336;2022-08-01T13:47:45;93881.31;;;30.64;33.01
1472;BME280;963;42.644;23.336;2022-08-01T13:50:11;93867.22;;;30.76;33.43
1472;BME280;963;42.644;23.336;2022-08-01T13:52:36;93875.16;;;30.86;33.50
1472;BME280;963;42.644;23.336;2022-08-01T13:55:02;93876.34;;;30.85;33.64
1472;BME280;963;42.644;23.336;2022-08-01T13:57:28;93870.44;;;30.97;32.90
1472;BME280;963;42.644;23.336;2022-08-01T13:59:54;93870.44;;;31.03;32.57
1472;BME280;963;42.644;23.336;2022-08-01T14:02:20;93878.59;;;31.03;33.52
1472;BME280;963;42.644;23.336;2022-08-01T14:04:45;93873.63;;;30.85;33.22
1472;BME280;963;42.644;23.336;2022-08-01T14:07:11;93869.19;;;30.82;33.40
1472;BME280;963;42.644;23.336;2022-08-01T14:09:37;93876.88;;;30.94;33.03
1472;BME280;963;42.644;23.336;2022-08-01T14:12:03;93864.75;;;30.78;33.21
1472;BME280;963;42.644;23.336;2022-08-01T14:14:28;93869.69;;;30.74;33.44
1472;BME280;963;42.644;23.336;2022-08-01T14:16:55;93870.94;;;30.79;33.88